Tulsa, OK (74135)

3:45 AM CST on February 13, 2016 (GMT -0600)
36th & Harvard Ave | | Change Station
CLOSE
Current Station
Personal Weather Station
Location: Tulsa, OK
Elevation: 748 ft
Nearby Weather Stations

Elev 748 ft 36.11 °N, 95.94 °W | Updated 29 seconds ago

Mostly Cloudy
Mostly Cloudy
32.9 °F
Feels Like 25 °F
N
9.2
Wind Variable Wind from North
Gusts 10.7 mph

Today
High -- | Low -- °F
--% Chance of Precip.
Yesterday
High -- | Low -- °F
Precip. -- in
Pressure 30.52 in
Visibility 10.0 miles
Clouds Clear
Windchill 25 °F
Dew Point 17 °F
Humidity 51%
Rainfall 0.00 in
Snow Depth Not available.
7:13 AM 6:02 PM
Waxing Crescent, 29% visible
METAR KRVS 130853Z 03009KT 10SM CLR 02/M08 A3050 RMK AO2 SLP335 T00171078 58001
Pressure 30.52 in
Visibility 10.0 miles
Clouds Clear
Windchill 25 °F
Dew Point 17 °F
Humidity 51%
Rainfall 0.00 in
Snow Depth Not available.
7:13 AM 6:02 PM
Waxing Crescent, 29% visible
METAR KRVS 130853Z 03009KT 10SM CLR 02/M08 A3050 RMK AO2 SLP335 T00171078 58001

10-Day Weather Forecast

Almanac

Astronomy

Feb. 13, 2016 Rise Set
Actual Time
Civil Twilight
Nautical Twilight
Astronomical Twilight
Moon
Length of Visible Light
Length of Day
Tomorrow will be .
, % of the Moon is Illuminated

Today's Extremes

State Highs State Lows

Community

WunderPhotos

Upload Photos

1,892,536 photos uploaded!

WunderBlog® & News

Nearby

Air Quality

  Air Quality AQ Index Pollutant
Not available.

Snow Depth

Station Depth Elevation

Earthquake Activity

City Distance Mag. Time & Date
Minimum magnitude displayed is 2.5.

Coastal Water Temperatures

Place Temperature

Stations

Nearby Weather Stations

Station Location Temp. Windchill Dew Point Humidity Wind Precip. Elev Updated Type
                   

Watches & Warnings

There are currently no watches in effect.